sensor_id;sensor_type;location;lat;lon;timestamp;pressure;altitude;pressure_sealevel;temperature;humidity
55171;BME280;41060;47.510;8.680;2023-09-19T00:01:33;96940.97;;;21.00;50.63
55171;BME280;41060;47.510;8.680;2023-09-19T00:03:59;96934.28;;;20.96;50.23
55171;BME280;41060;47.510;8.680;2023-09-19T00:06:28;96936.97;;;20.75;50.09
55171;BME280;41060;47.510;8.680;2023-09-19T00:08:57;96935.91;;;20.40;50.89
55171;BME280;41060;47.510;8.680;2023-09-19T00:11:25;96938.31;;;20.50;50.23
55171;BME280;41060;47.510;8.680;2023-09-19T00:13:53;96935.66;;;20.71;49.21
55171;BME280;41060;47.510;8.680;2023-09-19T00:16:21;96929.81;;;20.82;48.85
55171;BME280;41060;47.510;8.680;2023-09-19T00:18:48;96936.81;;;20.62;49.26
55171;BME280;41060;47.510;8.680;2023-09-19T00:21:15;96926.28;;;20.82;48.83
55171;BME280;41060;47.510;8.680;2023-09-19T00:23:42;96932.38;;;20.90;49.17
55171;BME280;41060;47.510;8.680;2023-09-19T00:26:10;96935.56;;;20.79;49.07
55171;BME280;41060;47.510;8.680;2023-09-19T00:28:38;96923.03;;;20.71;49.14
55171;BME280;41060;47.510;8.680;2023-09-19T00:31:08;96929.66;;;20.69;48.99
55171;BME280;41060;47.510;8.680;2023-09-19T00:33:36;96937.56;;;20.56;49.51
55171;BME280;41060;47.510;8.680;2023-09-19T00:36:06;96935.59;;;20.64;49.60
55171;BME280;41060;47.510;8.680;2023-09-19T00:38:32;96945.66;;;20.77;48.97
55171;BME280;41060;47.510;8.680;2023-09-19T00:40:59;96943.97;;;20.91;48.95
55171;BME280;41060;47.510;8.680;2023-09-19T00:43:26;96950.75;;;20.87;48.73
55171;BME280;41060;47.510;8.680;2023-09-19T00:45:55;96947.84;;;20.67;49.01
55171;BME280;41060;47.510;8.680;2023-09-19T00:48:22;96946.28;;;20.58;49.60
55171;BME280;41060;47.510;8.680;2023-09-19T00:50:54;96952.41;;;20.52;49.77
55171;BME280;41060;47.510;8.680;2023-09-19T00:53:24;96953.91;;;20.54;49.97
55171;BME280;41060;47.510;8.680;2023-09-19T00:55:50;96956.84;;;20.59;49.39
55171;BME280;41060;47.510;8.680;2023-09-19T00:58:18;96932.59;;;20.38;49.70
55171;BME280;41060;47.510;8.680;2023-09-19T01:00:46;96949.47;;;20.32;50.21
55171;BME280;41060;47.510;8.680;2023-09-19T01:03:13;96947.88;;;20.23;50.34
55171;BME280;41060;47.510;8.680;2023-09-19T01:05:40;96941.84;;;20.50;49.80
55171;BME280;41060;47.510;8.680;2023-09-19T01:08:12;96945.84;;;20.40;49.96
55171;BME280;41060;47.510;8.680;2023-09-19T01:10:44;96954.84;;;20.03;50.96
55171;BME280;41060;47.510;8.680;2023-09-19T01:13:22;96952.41;;;19.93;51.33
55171;BME280;41060;47.510;8.680;2023-09-19T01:15:59;96954.47;;;19.53;52.74
55171;BME280;41060;47.510;8.680;2023-09-19T01:18:35;96959.69;;;19.70;52.83
55171;BME280;41060;47.510;8.680;2023-09-19T01:21:08;96961.06;;;19.66;52.70
55171;BME280;41060;47.510;8.680;2023-09-19T01:23:58;96968.53;;;19.78;52.52
55171;BME280;41060;47.510;8.680;2023-09-19T01:26:44;96973.47;;;19.67;53.02
55171;BME280;41060;47.510;8.680;2023-09-19T01:29:27;96980.06;;;19.64;53.42
55171;BME280;41060;47.510;8.680;2023-09-19T01:32:04;96977.03;;;19.82;53.02
55171;BME280;41060;47.510;8.680;2023-09-19T01:34:43;96979.19;;;19.49;53.55
55171;BME280;41060;47.510;8.680;2023-09-19T01:37:12;96979.72;;;19.82;52.76
55171;BME280;41060;47.510;8.680;2023-09-19T01:39:40;96981.31;;;19.91;52.92
55171;BME280;41060;47.510;8.680;2023-09-19T01:42:14;96971.66;;;19.82;52.93
55171;BME280;41060;47.510;8.680;2023-09-19T01:44:49;96976.22;;;19.96;52.94
55171;BME280;41060;47.510;8.680;2023-09-19T01:47:23;96975.28;;;19.89;53.11
55171;BME280;41060;47.510;8.680;2023-09-19T01:49:58;96962.41;;;19.84;52.82
55171;BME280;41060;47.510;8.680;2023-09-19T01:52:30;96973.44;;;20.04;52.59
55171;BME280;41060;47.510;8.680;2023-09-19T01:55:05;96971.78;;;20.03;52.66
55171;BME280;41060;47.510;8.680;2023-09-19T01:57:36;96967.13;;;19.82;52.92
55171;BME280;41060;47.510;8.680;2023-09-19T02:00:08;96975.66;;;19.86;52.64
55171;BME280;41060;47.510;8.680;2023-09-19T02:02:40;96976.34;;;20.03;52.57
55171;BME280;41060;47.510;8.680;2023-09-19T02:05:07;96976.13;;;20.04;52.50
55171;BME280;41060;47.510;8.680;2023-09-19T02:07:34;96976.22;;;20.11;51.95
55171;BME280;41060;47.510;8.680;2023-09-19T02:10:01;96976.78;;;20.21;51.93
55171;BME280;41060;47.510;8.680;2023-09-19T02:12:29;96974.09;;;20.06;52.15
55171;BME280;41060;47.510;8.680;2023-09-19T02:14:58;96974.84;;;20.00;52.20
55171;BME280;41060;47.510;8.680;2023-09-19T02:17:24;96972.69;;;19.95;52.05
55171;BME280;41060;47.510;8.680;2023-09-19T02:19:55;96982.81;;;19.93;52.00
55171;BME280;41060;47.510;8.680;2023-09-19T02:22:22;96985.66;;;19.77;52.54
55171;BME280;41060;47.510;8.680;2023-09-19T02:24:50;96978.69;;;19.68;52.15
55171;BME280;41060;47.510;8.680;2023-09-19T02:27:17;96963.66;;;19.36;53.14
55171;BME280;41060;47.510;8.680;2023-09-19T02:29:44;96995.63;;;19.46;53.23
55171;BME280;41060;47.510;8.680;2023-09-19T02:32:10;96988.47;;;19.38;53.13
55171;BME280;41060;47.510;8.680;2023-09-19T02:34:38;96991.66;;;19.42;53.22
55171;BME280;41060;47.510;8.680;2023-09-19T02:37:06;96992.94;;;19.46;53.08
55171;BME280;41060;47.510;8.680;2023-09-19T02:39:33;96999.84;;;19.48;52.96
55171;BME280;41060;47.510;8.680;2023-09-19T02:42:04;97006.34;;;19.54;52.73
55171;BME280;41060;47.510;8.680;2023-09-19T02:44:31;97001.19;;;19.67;52.44
55171;BME280;41060;47.510;8.680;2023-09-19T02:46:57;96995.19;;;19.65;52.39
55171;BME280;41060;47.510;8.680;2023-09-19T02:49:25;96973.69;;;19.42;52.60
55171;BME280;41060;47.510;8.680;2023-09-19T02:51:54;96993.69;;;19.63;52.70
55171;BME280;41060;47.510;8.680;2023-09-19T02:54:22;96996.84;;;19.81;51.96
55171;BME280;41060;47.510;8.680;2023-09-19T02:56:49;96992.72;;;20.08;51.30
55171;BME280;41060;47.510;8.680;2023-09-19T02:59:16;96982.28;;;20.27;50.59
55171;BME280;41060;47.510;8.680;2023-09-19T03:01:44;96988.75;;;20.33;50.33
55171;BME280;41060;47.510;8.680;2023-09-19T03:04:14;96978.50;;;20.37;49.91
55171;BME280;41060;47.510;8.680;2023-09-19T03:06:45;96983.69;;;20.23;49.92
55171;BME280;41060;47.510;8.680;2023-09-19T03:09:11;96979.50;;;20.36;50.04
55171;BME280;41060;47.510;8.680;2023-09-19T03:11:41;96983.03;;;20.51;49.72
55171;BME280;41060;47.510;8.680;2023-09-19T03:14:07;96982.00;;;20.37;49.75
55171;BME280;41060;47.510;8.680;2023-09-19T03:16:35;96986.56;;;20.37;49.76
55171;BME280;41060;47.510;8.680;2023-09-19T03:19:03;96993.03;;;20.27;49.99
55171;BME280;41060;47.510;8.680;2023-09-19T03:21:30;96985.97;;;20.12;50.30
55171;BME280;41060;47.510;8.680;2023-09-19T03:23:57;96988.28;;;20.00;50.57
55171;BME280;41060;47.510;8.680;2023-09-19T03:26:24;96992.59;;;19.72;51.16
55171;BME280;41060;47.510;8.680;2023-09-19T03:28:53;96988.34;;;19.92;50.29
55171;BME280;41060;47.510;8.680;2023-09-19T03:31:20;96987.19;;;20.09;50.31
55171;BME280;41060;47.510;8.680;2023-09-19T03:33:47;96995.75;;;19.90;50.45
55171;BME280;41060;47.510;8.680;2023-09-19T03:36:13;96971.75;;;19.88;50.13
55171;BME280;41060;47.510;8.680;2023-09-19T03:38:41;96987.53;;;20.21;49.93
55171;BME280;41060;47.510;8.680;2023-09-19T03:41:08;96982.53;;;20.03;49.98
55171;BME280;41060;47.510;8.680;2023-09-19T03:43:39;96984.66;;;19.93;50.00
55171;BME280;41060;47.510;8.680;2023-09-19T03:46:07;96992.31;;;19.81;50.52
55171;BME280;41060;47.510;8.680;2023-09-19T03:48:34;96988.50;;;19.76;50.83
55171;BME280;41060;47.510;8.680;2023-09-19T03:51:00;96984.78;;;19.62;50.95
55171;BME280;41060;47.510;8.680;2023-09-19T03:53:30;96984.81;;;19.77;50.51
55171;BME280;41060;47.510;8.680;2023-09-19T03:55:57;96979.28;;;19.93;50.12
55171;BME280;41060;47.510;8.680;2023-09-19T03:58:25;96984.84;;;20.06;49.96
55171;BME280;41060;47.510;8.680;2023-09-19T04:00:55;96965.72;;;19.72;50.16
55171;BME280;41060;47.510;8.680;2023-09-19T04:03:23;96984.41;;;20.03;49.86
55171;BME280;41060;47.510;8.680;2023-09-19T04:05:59;96989.56;;;20.04;50.00
55171;BME280;41060;47.510;8.680;2023-09-19T04:08:26;96993.69;;;20.29;49.35
55171;BME280;41060;47.510;8.680;2023-09-19T04:10:53;96988.13;;;20.31;48.92
55171;BME280;41060;47.510;8.680;2023-09-19T04:13:19;96995.91;;;20.41;48.75
55171;BME280;41060;47.510;8.680;2023-09-19T04:15:47;96990.44;;;20.34;49.00
55171;BME280;41060;47.510;8.680;2023-09-19T04:18:13;96997.59;;;20.27;49.04
55171;BME280;41060;47.510;8.680;2023-09-19T04:20:47;96997.25;;;19.92;50.14
55171;BME280;41060;47.510;8.680;2023-09-19T04:23:14;96995.28;;;19.72;50.36
55171;BME280;41060;47.510;8.680;2023-09-19T04:25:42;96986.41;;;19.86;50.21
55171;BME280;41060;47.510;8.680;2023-09-19T04:28:08;97000.59;;;19.94;49.91
55171;BME280;41060;47.510;8.680;2023-09-19T04:30:37;96997.06;;;19.79;50.25
55171;BME280;41060;47.510;8.680;2023-09-19T04:33:06;97002.72;;;19.99;49.76
55171;BME280;41060;47.510;8.680;2023-09-19T04:35:33;97008.59;;;20.17;49.70
55171;BME280;41060;47.510;8.680;2023-09-19T04:38:02;97004.31;;;20.23;49.42
55171;BME280;41060;47.510;8.680;2023-09-19T04:40:31;97010.81;;;20.14;49.26
55171;BME280;41060;47.510;8.680;2023-09-19T04:42:58;97016.66;;;20.03;49.51
55171;BME280;41060;47.510;8.680;2023-09-19T04:45:28;97011.47;;;20.16;51.69
55171;BME280;41060;47.510;8.680;2023-09-19T04:47:55;97013.88;;;20.25;49.70
55171;BME280;41060;47.510;8.680;2023-09-19T04:50:22;97026.00;;;20.07;49.69
55171;BME280;41060;47.510;8.680;2023-09-19T04:52:52;97017.00;;;20.00;49.81
55171;BME280;41060;47.510;8.680;2023-09-19T04:55:20;97019.63;;;20.08;50.08
55171;BME280;41060;47.510;8.680;2023-09-19T04:57:48;97026.28;;;20.12;49.52
55171;BME280;41060;47.510;8.680;2023-09-19T05:00:19;97030.88;;;19.88;50.09
55171;BME280;41060;47.510;8.680;2023-09-19T05:02:49;97028.38;;;19.87;50.12
55171;BME280;41060;47.510;8.680;2023-09-19T05:05:17;97038.03;;;19.96;49.96
55171;BME280;41060;47.510;8.680;2023-09-19T05:07:44;97040.06;;;19.94;49.46
55171;BME280;41060;47.510;8.680;2023-09-19T05:10:12;97034.22;;;20.28;51.37
55171;BME280;41060;47.510;8.680;2023-09-19T05:12:41;97042.53;;;20.33;49.39
55171;BME280;41060;47.510;8.680;2023-09-19T05:15:10;97044.88;;;20.36;49.03
55171;BME280;41060;47.510;8.680;2023-09-19T05:17:37;97050.69;;;20.25;49.03
55171;BME280;41060;47.510;8.680;2023-09-19T05:20:05;97048.41;;;19.99;49.20
55171;BME280;41060;47.510;8.680;2023-09-19T05:22:41;97055.06;;;19.88;49.70
55171;BME280;41060;47.510;8.680;2023-09-19T05:25:11;97059.03;;;19.78;50.11
55171;BME280;41060;47.510;8.680;2023-09-19T05:27:42;97056.19;;;19.94;49.77
55171;BME280;41060;47.510;8.680;2023-09-19T05:30:10;97061.50;;;20.02;49.62
55171;BME280;41060;47.510;8.680;2023-09-19T05:32:39;97061.31;;;20.18;49.36
55171;BME280;41060;47.510;8.680;2023-09-19T05:35:06;97036.38;;;19.95;49.88
55171;BME280;41060;47.510;8.680;2023-09-19T05:37:35;97069.84;;;20.07;49.54
55171;BME280;41060;47.510;8.680;2023-09-19T05:40:06;97075.50;;;19.75;50.33
55171;BME280;41060;47.510;8.680;2023-09-19T05:42:36;97076.88;;;19.71;50.93
55171;BME280;41060;47.510;8.680;2023-09-19T05:45:07;97077.91;;;19.70;51.02
55171;BME280;41060;47.510;8.680;2023-09-19T05:47:33;97085.59;;;19.73;50.80
55171;BME280;41060;47.510;8.680;2023-09-19T05:50:04;97054.03;;;19.44;51.43
55171;BME280;41060;47.510;8.680;2023-09-19T05:52:33;97087.63;;;19.48;51.74
55171;BME280;41060;47.510;8.680;2023-09-19T05:54:59;97092.81;;;19.49;52.67
55171;BME280;41060;47.510;8.680;2023-09-19T05:57:29;97088.44;;;19.94;52.34
55171;BME280;41060;47.510;8.680;2023-09-19T05:59:55;97084.31;;;20.21;50.43
55171;BME280;41060;47.510;8.680;2023-09-19T06:02:23;97075.41;;;20.20;51.38
55171;BME280;41060;47.510;8.680;2023-09-19T06:04:52;97082.44;;;20.29;50.85
55171;BME280;41060;47.510;8.680;2023-09-19T06:07:20;97086.81;;;20.45;50.12
55171;BME280;41060;47.510;8.680;2023-09-19T06:09:47;97089.91;;;19.96;50.83
55171;BME280;41060;47.510;8.680;2023-09-19T06:12:14;97079.25;;;19.66;51.74
55171;BME280;41060;47.510;8.680;2023-09-19T06:14:42;97094.66;;;19.72;51.80
55171;BME280;41060;47.510;8.680;2023-09-19T06:17:09;97100.09;;;19.86;52.12
55171;BME280;41060;47.510;8.680;2023-09-19T06:19:37;97094.41;;;19.58;52.29
55171;BME280;41060;47.510;8.680;2023-09-19T06:22:07;97094.34;;;19.89;51.58
55171;BME280;41060;47.510;8.680;2023-09-19T06:24:34;97098.59;;;20.21;51.21
55171;BME280;41060;47.510;8.680;2023-09-19T06:27:01;97060.13;;;19.83;51.00
55171;BME280;41060;47.510;8.680;2023-09-19T06:29:29;97102.00;;;20.01;51.32
55171;BME280;41060;47.510;8.680;2023-09-19T06:31:56;97109.06;;;20.16;51.23
55171;BME280;41060;47.510;8.680;2023-09-19T06:34:23;97107.47;;;20.30;51.28
55171;BME280;41060;47.510;8.680;2023-09-19T06:36:52;97105.00;;;20.20;50.98
55171;BME280;41060;47.510;8.680;2023-09-19T06:39:23;97109.16;;;20.08;51.63
55171;BME280;41060;47.510;8.680;2023-09-19T06:41:51;97103.44;;;20.26;51.61
55171;BME280;41060;47.510;8.680;2023-09-19T06:44:18;97109.59;;;20.34;51.20
55171;BME280;41060;47.510;8.680;2023-09-19T06:46:46;97115.44;;;20.38;51.21
55171;BME280;41060;47.510;8.680;2023-09-19T06:49:17;97116.09;;;20.69;50.89
55171;BME280;41060;47.510;8.680;2023-09-19T06:51:43;97105.81;;;20.73;50.29
55171;BME280;41060;47.510;8.680;2023-09-19T06:54:14;97123.44;;;20.90;49.88
55171;BME280;41060;47.510;8.680;2023-09-19T06:56:43;97113.69;;;21.19;49.81
55171;BME280;41060;47.510;8.680;2023-09-19T06:59:10;97117.66;;;21.23;49.26
55171;BME280;41060;47.510;8.680;2023-09-19T07:01:40;97124.00;;;21.15;49.42
55171;BME280;41060;47.510;8.680;2023-09-19T07:04:07;97117.84;;;20.62;50.03
55171;BME280;41060;47.510;8.680;2023-09-19T07:06:33;97141.34;;;20.54;50.39
55171;BME280;41060;47.510;8.680;2023-09-19T07:09:01;97136.22;;;20.44;51.26
55171;BME280;41060;47.510;8.680;2023-09-19T07:11:29;97139.75;;;20.45;50.78
55171;BME280;41060;47.510;8.680;2023-09-19T07:13:57;97137.44;;;20.56;50.94
55171;BME280;41060;47.510;8.680;2023-09-19T07:16:24;97140.53;;;20.68;50.33
55171;BME280;41060;47.510;8.680;2023-09-19T07:18:58;97137.44;;;20.71;50.71
55171;BME280;41060;47.510;8.680;2023-09-19T07:21:25;97141.53;;;20.67;50.74
55171;BME280;41060;47.510;8.680;2023-09-19T07:23:51;97141.06;;;20.63;50.81
55171;BME280;41060;47.510;8.680;2023-09-19T07:26:18;97142.88;;;20.48;51.70
55171;BME280;41060;47.510;8.680;2023-09-19T07:28:46;97139.09;;;20.43;51.67
55171;BME280;41060;47.510;8.680;2023-09-19T07:31:13;97149.34;;;20.24;52.16
55171;BME280;41060;47.510;8.680;2023-09-19T07:33:42;97153.09;;;20.15;52.05
55171;BME280;41060;47.510;8.680;2023-09-19T07:36:11;97145.50;;;20.56;51.77
55171;BME280;41060;47.510;8.680;2023-09-19T07:38:39;97146.25;;;20.65;51.06
55171;BME280;41060;47.510;8.680;2023-09-19T07:41:07;97147.56;;;20.69;51.02
55171;BME280;41060;47.510;8.680;2023-09-19T07:43:34;97149.97;;;20.93;50.69
55171;BME280;41060;47.510;8.680;2023-09-19T07:46:04;97150.56;;;21.03;50.27
55171;BME280;41060;47.510;8.680;2023-09-19T07:48:32;97151.91;;;20.55;50.73
55171;BME280;41060;47.510;8.680;2023-09-19T07:51:02;97154.72;;;20.77;51.27
55171;BME280;41060;47.510;8.680;2023-09-19T07:53:28;97164.66;;;20.76;50.58
55171;BME280;41060;47.510;8.680;2023-09-19T07:56:02;97166.06;;;21.01;50.67
55171;BME280;41060;47.510;8.680;2023-09-19T07:58:29;97170.56;;;20.57;50.86
55171;BME280;41060;47.510;8.680;2023-09-19T08:01:03;97175.19;;;20.78;51.26
55171;BME280;41060;47.510;8.680;2023-09-19T08:03:32;97142.56;;;20.95;50.53
55171;BME280;41060;47.510;8.680;2023-09-19T08:06:00;97178.84;;;21.14;49.86
55171;BME280;41060;47.510;8.680;2023-09-19T08:08:27;97178.41;;;21.10;50.57
55171;BME280;41060;47.510;8.680;2023-09-19T08:10:57;97107.75;;;20.64;50.49
55171;BME280;41060;47.510;8.680;2023-09-19T08:13:24;97181.56;;;20.99;50.24
55171;BME280;41060;47.510;8.680;2023-09-19T08:15:52;97185.78;;;20.79;50.47
55171;BME280;41060;47.510;8.680;2023-09-19T08:18:20;97185.88;;;20.86;51.08
55171;BME280;41060;47.510;8.680;2023-09-19T08:20:52;97189.50;;;20.78;50.61
55171;BME280;41060;47.510;8.680;2023-09-19T08:23:19;97189.78;;;20.68;50.57
55171;BME280;41060;47.510;8.680;2023-09-19T08:25:46;97172.31;;;20.64;50.69
55171;BME280;41060;47.510;8.680;2023-09-19T08:28:13;97193.50;;;20.97;49.98
55171;BME280;41060;47.510;8.680;2023-09-19T08:30:44;97189.63;;;21.14;50.16
55171;BME280;41060;47.510;8.680;2023-09-19T08:33:12;97189.03;;;21.48;49.63
55171;BME280;41060;47.510;8.680;2023-09-19T08:35:42;97186.91;;;21.73;49.07
55171;BME280;41060;47.510;8.680;2023-09-19T08:38:10;97185.66;;;21.75;48.26
55171;BME280;41060;47.510;8.680;2023-09-19T08:40:41;97192.13;;;21.81;47.89
55171;BME280;41060;47.510;8.680;2023-09-19T08:43:09;97192.09;;;21.96;47.92
55171;BME280;41060;47.510;8.680;2023-09-19T08:45:36;97194.22;;;22.00;47.97
55171;BME280;41060;47.510;8.680;2023-09-19T08:48:16;97201.66;;;21.98;47.52
55171;BME280;41060;47.510;8.680;2023-09-19T08:50:49;97200.56;;;21.93;47.66
55171;BME280;41060;47.510;8.680;2023-09-19T08:53:21;97175.63;;;21.04;48.63
55171;BME280;41060;47.510;8.680;2023-09-19T08:55:53;97195.44;;;20.88;48.81
55171;BME280;41060;47.510;8.680;2023-09-19T08:58:26;97195.66;;;21.01;49.25
55171;BME280;41060;47.510;8.680;2023-09-19T09:00:56;97204.50;;;21.25;48.16
55171;BME280;41060;47.510;8.680;2023-09-19T09:03:26;97192.31;;;21.14;48.25
55171;BME280;41060;47.510;8.680;2023-09-19T09:05:54;97201.09;;;21.52;48.66
55171;BME280;41060;47.510;8.680;2023-09-19T09:08:22;97202.00;;;21.74;48.82
55171;BME280;41060;47.510;8.680;2023-09-19T09:10:49;97199.78;;;21.63;47.89
55171;BME280;41060;47.510;8.680;2023-09-19T09:13:16;97207.69;;;21.64;48.50
55171;BME280;41060;47.510;8.680;2023-09-19T09:15:44;97212.69;;;21.67;48.20
55171;BME280;41060;47.510;8.680;2023-09-19T09:18:11;97214.81;;;21.86;48.21
55171;BME280;41060;47.510;8.680;2023-09-19T09:20:38;97212.63;;;21.97;47.03
55171;BME280;41060;47.510;8.680;2023-09-19T09:23:07;97221.59;;;21.82;46.58
55171;BME280;41060;47.510;8.680;2023-09-19T09:25:50;97218.53;;;21.85;47.22
55171;BME280;41060;47.510;8.680;2023-09-19T09:28:21;97217.06;;;21.68;47.17
55171;BME280;41060;47.510;8.680;2023-09-19T09:30:48;97215.13;;;21.77;47.53
55171;BME280;41060;47.510;8.680;2023-09-19T09:33:16;97209.75;;;21.98;47.16
55171;BME280;41060;47.510;8.680;2023-09-19T09:35:48;97221.13;;;22.15;47.05
55171;BME280;41060;47.510;8.680;2023-09-19T09:38:19;97214.06;;;22.14;46.41
55171;BME280;41060;47.510;8.680;2023-09-19T09:40:48;97213.03;;;22.36;46.41
55171;BME280;41060;47.510;8.680;2023-09-19T09:43:30;97216.00;;;22.41;46.43
55171;BME280;41060;47.510;8.680;2023-09-19T09:46:08;97224.53;;;22.02;46.57
55171;BME280;41060;47.510;8.680;2023-09-19T09:48:59;97217.97;;;21.90;46.87
55171;BME280;41060;47.510;8.680;2023-09-19T09:51:46;97207.41;;;22.10;47.00
55171;BME280;41060;47.510;8.680;2023-09-19T09:54:25;97202.97;;;22.23;46.45
55171;BME280;41060;47.510;8.680;2023-09-19T09:56:55;97204.06;;;22.50;46.23
55171;BME280;41060;47.510;8.680;2023-09-19T09:59:45;97208.72;;;22.63;45.82
55171;BME280;41060;47.510;8.680;2023-09-19T10:02:14;97205.69;;;22.73;45.77
55171;BME280;41060;47.510;8.680;2023-09-19T10:04:45;97177.72;;;22.52;45.23
55171;BME280;41060;47.510;8.680;2023-09-19T10:07:28;97200.78;;;22.83;44.86
55171;BME280;41060;47.510;8.680;2023-09-19T10:09:59;97197.19;;;23.03;44.83
55171;BME280;41060;47.510;8.680;2023-09-19T10:12:43;97205.72;;;23.07;45.51
55171;BME280;41060;47.510;8.680;2023-09-19T10:15:13;97196.56;;;23.36;44.44
55171;BME280;41060;47.510;8.680;2023-09-19T10:17:43;97160.56;;;23.29;43.69
55171;BME280;41060;47.510;8.680;2023-09-19T10:20:12;97189.38;;;23.56;43.79
55171;BME280;41060;47.510;8.680;2023-09-19T10:23:05;97184.63;;;23.65;43.25
55171;BME280;41060;47.510;8.680;2023-09-19T10:25:37;97191.28;;;23.69;43.76
55171;BME280;41060;47.510;8.680;2023-09-19T10:28:06;97192.16;;;23.28;43.63
55171;BME280;41060;47.510;8.680;2023-09-19T10:30:41;97196.13;;;23.32;43.60
55171;BME280;41060;47.510;8.680;2023-09-19T10:33:11;97197.59;;;23.07;43.43
55171;BME280;41060;47.510;8.680;2023-09-19T10:35:39;97198.00;;;23.32;43.67
55171;BME280;41060;47.510;8.680;2023-09-19T10:38:07;97182.66;;;23.46;43.19
55171;BME280;41060;47.510;8.680;2023-09-19T10:40:40;97202.97;;;23.28;43.20
55171;BME280;41060;47.510;8.680;2023-09-19T10:43:12;97204.06;;;23.40;42.81
55171;BME280;41060;47.510;8.680;2023-09-19T10:45:41;97196.78;;;23.41;42.47
55171;BME280;41060;47.510;8.680;2023-09-19T10:48:12;97183.94;;;23.43;42.36
55171;BME280;41060;47.510;8.680;2023-09-19T10:50:46;97193.78;;;23.70;42.43
55171;BME280;41060;47.510;8.680;2023-09-19T10:53:14;97174.53;;;23.80;42.09
55171;BME280;41060;47.510;8.680;2023-09-19T10:55:53;97161.59;;;23.75;42.04
55171;BME280;41060;47.510;8.680;2023-09-19T10:58:27;97196.41;;;24.05;42.12
55171;BME280;41060;47.510;8.680;2023-09-19T11:00:56;97191.84;;;24.12;42.07
55171;BME280;41060;47.510;8.680;2023-09-19T11:03:30;97194.97;;;24.15;41.77
55171;BME280;41060;47.510;8.680;2023-09-19T11:06:03;97191.78;;;23.86;41.16
55171;BME280;41060;47.510;8.680;2023-09-19T11:08:57;97189.72;;;23.40;42.53
55171;BME280;41060;47.510;8.680;2023-09-19T11:11:42;97182.72;;;23.59;42.30
55171;BME280;41060;47.510;8.680;2023-09-19T11:14:16;97171.34;;;23.70;42.42
55171;BME280;41060;47.510;8.680;2023-09-19T11:23:17;97168.28;;;23.80;41.69
55171;BME280;41060;47.510;8.680;2023-09-19T11:25:44;97171.59;;;23.88;41.80
55171;BME280;41060;47.510;8.680;2023-09-19T11:28:36;97166.06;;;24.09;41.91
55171;BME280;41060;47.510;8.680;2023-09-19T11:31:41;97159.81;;;24.22;42.18
55171;BME280;41060;47.510;8.680;2023-09-19T11:34:39;97165.22;;;24.35;40.74
55171;BME280;41060;47.510;8.680;2023-09-19T11:40:11;97160.03;;;24.21;41.28
55171;BME280;41060;47.510;8.680;2023-09-19T11:42:43;97162.31;;;24.17;41.43
55171;BME280;41060;47.510;8.680;2023-09-19T11:48:13;97146.31;;;24.42;41.77
55171;BME280;41060;47.510;8.680;2023-09-19T11:50:47;97092.00;;;24.24;40.85
55171;BME280;41060;47.510;8.680;2023-09-19T11:53:16;97140.47;;;24.71;40.03
55171;BME280;41060;47.510;8.680;2023-09-19T11:55:46;97140.69;;;24.76;40.32
55171;BME280;41060;47.510;8.680;2023-09-19T11:58:15;97142.78;;;24.68;40.50
55171;BME280;41060;47.510;8.680;2023-09-19T12:00:44;97136.72;;;24.79;39.92
55171;BME280;41060;47.510;8.680;2023-09-19T12:03:13;97133.38;;;24.90;40.05
55171;BME280;41060;47.510;8.680;2023-09-19T12:05:40;97137.50;;;24.99;39.98
55171;BME280;41060;47.510;8.680;2023-09-19T12:08:09;97130.63;;;25.10;38.62
55171;BME280;41060;47.510;8.680;2023-09-19T12:10:45;97126.81;;;25.24;39.71
55171;BME280;41060;47.510;8.680;2023-09-19T12:13:16;97131.06;;;25.58;38.52
55171;BME280;41060;47.510;8.680;2023-09-19T12:15:43;97133.16;;;25.56;38.93
55171;BME280;41060;47.510;8.680;2023-09-19T12:18:27;97135.59;;;25.71;38.69
55171;BME280;41060;47.510;8.680;2023-09-19T12:20:55;97120.78;;;25.73;38.55
55171;BME280;41060;47.510;8.680;2023-09-19T12:23:23;97123.94;;;26.01;38.39
55171;BME280;41060;47.510;8.680;2023-09-19T12:25:51;97123.63;;;26.16;38.78
55171;BME280;41060;47.510;8.680;2023-09-19T12:28:19;97100.44;;;25.89;36.75
55171;BME280;41060;47.510;8.680;2023-09-19T12:30:47;97116.47;;;25.52;37.19
55171;BME280;41060;47.510;8.680;2023-09-19T12:33:16;97119.91;;;25.35;36.81
55171;BME280;41060;47.510;8.680;2023-09-19T12:35:46;97112.97;;;25.45;37.53
55171;BME280;41060;47.510;8.680;2023-09-19T12:38:23;97111.72;;;25.48;38.69
55171;BME280;41060;47.510;8.680;2023-09-19T12:40:50;97087.28;;;25.92;37.90
55171;BME280;41060;47.510;8.680;2023-09-19T12:43:18;97097.81;;;26.38;36.43
55171;BME280;41060;47.510;8.680;2023-09-19T12:45:44;97099.19;;;26.66;36.49
55171;BME280;41060;47.510;8.680;2023-09-19T12:48:24;97087.94;;;26.87;35.65
55171;BME280;41060;47.510;8.680;2023-09-19T12:51:02;97093.75;;;27.09;35.58
55171;BME280;41060;47.510;8.680;2023-09-19T12:53:32;97083.44;;;26.99;34.47
55171;BME280;41060;47.510;8.680;2023-09-19T12:56:01;97076.47;;;27.03;33.90
55171;BME280;41060;47.510;8.680;2023-09-19T12:58:31;97069.50;;;27.26;34.06
55171;BME280;41060;47.510;8.680;2023-09-19T13:01:00;97065.34;;;27.41;33.67
55171;BME280;41060;47.510;8.680;2023-09-19T13:03:31;97075.34;;;27.11;33.75
55171;BME280;41060;47.510;8.680;2023-09-19T13:06:02;97069.59;;;27.01;34.11
55171;BME280;41060;47.510;8.680;2023-09-19T13:08:30;97069.28;;;27.27;34.50
55171;BME280;41060;47.510;8.680;2023-09-19T13:11:09;97051.56;;;27.06;33.70
55171;BME280;41060;47.510;8.680;2023-09-19T13:13:39;97071.41;;;27.07;33.80
55171;BME280;41060;47.510;8.680;2023-09-19T13:16:07;97069.97;;;26.86;34.14
55171;BME280;41060;47.510;8.680;2023-09-19T13:18:47;97067.59;;;26.53;34.27
55171;BME280;41060;47.510;8.680;2023-09-19T13:21:28;97066.09;;;26.07;34.50
55171;BME280;41060;47.510;8.680;2023-09-19T13:24:01;97056.72;;;25.79;35.29
55171;BME280;41060;47.510;8.680;2023-09-19T13:26:46;97058.47;;;25.91;35.69
55171;BME280;41060;47.510;8.680;2023-09-19T13:29:12;97057.81;;;26.21;34.80